Ana Sayfa
METAR-TAF:

METAR-TAF

Havaalanları :

Aurora Municipal Airport (Al Potter Field)

Aurora, Nebraska, Amerika Birleşik Devletleri

Enlem: 40-53-38N, Boylam: 097-59-40W, yükseklik: 550 m

Güncel hava durumu gözlemi

Rapor saat 03:35 UTC de 23 dakika önce yapıldı.
Rüzgar kuzey/kuzeydoğudan 16 kt
Sıcaklık 12°C
Nem 62%
Basınç 1015 hPa
Görüş mesafesi: 16.1 km
9000 ft yükseklikte parçalı bulutlu
11000 ft yükseklikte parçalı çok bulutlu

METAR: KAUH 180335Z AUTO 03016KT 10SM SCT090 BKN110 12/05 A2996 RMK AO2 T01200045

Saat: 22:58 (03:58 UTC)


TAF: eksik

4.000'den fazla havaalanı için hava durumu gözlemleri ve tahminleri (METAR ve TAF raporları).

Kullanılabilir istasyonlar harita üzerinde sarı ve kırmızı noktalarla gösterilir.

İstasyonun adını görmek için fareyi noktanın üzerinde gezdirin.

Sonrasında hava gözlem ve tahminlerini görmek için tıklayın.

Haritayı değiştirmek için: yaklaştırmak için siyah artı işaretli yeşil düğmeye ve uzaklaştırmak için de eksi işaretli düğmeye hızla tıklayın; bitişik haritalar için yeşil okları kullanın.


METAR-TAF: